createdAt,value
2023-01-03T00:02:19.591Z,6.15
2023-01-03T00:04:49.765Z,6.08
2023-01-03T00:07:33.829Z,6.05
2023-01-03T00:10:08.053Z,6.15
2023-01-03T00:12:35.405Z,6.17
2023-01-03T00:15:02.405Z,6.18
2023-01-03T00:17:29.755Z,6.17
2023-01-03T00:19:56.435Z,6.17
2023-01-03T00:22:23.073Z,6.21
2023-01-03T00:24:51.875Z,6.18
2023-01-03T00:27:18.683Z,6.15
2023-01-03T00:29:45.539Z,6.16
2023-01-03T00:32:12.462Z,6.16
2023-01-03T00:34:39.385Z,6.14
2023-01-03T00:37:06.025Z,6.04
2023-01-03T00:39:33.642Z,6.10
2023-01-03T00:42:00.495Z,6.04
2023-01-03T00:44:27.553Z,5.98
2023-01-03T00:46:54.128Z,6.06
2023-01-03T00:49:20.853Z,6.06
2023-01-03T00:51:47.426Z,5.98
2023-01-03T00:54:15.154Z,5.91
2023-01-03T00:56:44.181Z,6.01
2023-01-03T00:59:11.634Z,6.01
2023-01-03T01:01:47.229Z,6.08
2023-01-03T01:04:29.761Z,6.10
2023-01-03T01:07:01.772Z,6.15
2023-01-03T01:09:32.438Z,6.17
2023-01-03T01:11:59.225Z,6.16
2023-01-03T01:14:29.104Z,6.18
2023-01-03T01:17:02.068Z,6.04
2023-01-03T01:19:34.516Z,6.08
2023-01-03T01:22:01.730Z,6.06
2023-01-03T01:24:28.749Z,6.09
2023-01-03T01:26:55.363Z,6.13
2023-01-03T01:29:22.051Z,6.12
2023-01-03T01:31:48.635Z,6.11
2023-01-03T01:34:16.013Z,6.10
2023-01-03T01:36:44.126Z,5.95
2023-01-03T01:39:17.498Z,5.97
2023-01-03T01:42:04.362Z,6.01
2023-01-03T01:44:52.339Z,6.02
2023-01-03T01:47:45.167Z,5.96
2023-01-03T01:50:15.198Z,5.93
2023-01-03T01:52:54.737Z,5.92
2023-01-03T01:55:26.769Z,5.94
2023-01-03T01:57:54.259Z,5.93
2023-01-03T02:00:21.376Z,5.94
2023-01-03T02:02:51.934Z,6.01
2023-01-03T02:05:20.146Z,6.04
2023-01-03T02:07:51.981Z,6.09
2023-01-03T02:10:44.463Z,6.05
2023-01-03T02:13:29.725Z,6.02
2023-01-03T02:16:13.114Z,6.02
2023-01-03T02:18:54.902Z,6.01
2023-01-03T02:21:36.669Z,6.06
2023-01-03T02:24:31.176Z,6.08
2023-01-03T02:27:36.518Z,6.10
2023-01-03T02:30:32.762Z,6.14
2023-01-03T02:33:05.265Z,6.14
2023-01-03T02:35:43.933Z,6.16
2023-01-03T02:38:32.352Z,6.18
2023-01-03T02:41:24.201Z,6.17
2023-01-03T02:44:01.405Z,6.10
2023-01-03T02:47:02.610Z,5.97
2023-01-03T02:49:37.976Z,6.07
2023-01-03T02:52:09.854Z,6.06
2023-01-03T02:54:43.446Z,6.00
2023-01-03T02:57:14.791Z,5.97
2023-01-03T02:59:47.649Z,6.03
2023-01-03T03:02:16.440Z,6.01
2023-01-03T03:04:45.358Z,6.01
2023-01-03T03:07:20.523Z,6.03
2023-01-03T03:10:05.866Z,6.06
2023-01-03T03:12:53.600Z,6.03
2023-01-03T03:15:23.256Z,6.03
2023-01-03T03:17:54.065Z,6.07
2023-01-03T03:20:39.030Z,5.94
2023-01-03T03:23:29.104Z,5.93
2023-01-03T03:26:04.258Z,6.00
2023-01-03T03:28:37.236Z,5.94
2023-01-03T03:31:40.880Z,5.96
2023-01-03T03:34:11.747Z,5.94
2023-01-03T03:36:44.316Z,5.91
2023-01-03T03:39:31.664Z,5.90
2023-01-03T03:42:52.125Z,5.84
2023-01-03T03:45:32.293Z,5.78
2023-01-03T03:48:07.803Z,5.70
2023-01-03T03:50:49.820Z,5.65
2023-01-03T03:53:20.268Z,5.61
2023-01-03T03:56:01.719Z,5.59
2023-01-03T03:58:39.228Z,5.59
2023-01-03T04:01:07.995Z,5.59
2023-01-03T04:03:36.875Z,5.52
2023-01-03T04:06:13.936Z,5.61
2023-01-03T04:08:40.660Z,5.63
2023-01-03T04:11:07.673Z,5.63
2023-01-03T04:13:36.686Z,5.61
2023-01-03T04:16:04.208Z,5.65
2023-01-03T04:18:30.893Z,5.55
2023-01-03T04:20:57.537Z,5.63
2023-01-03T04:23:24.420Z,5.62
2023-01-03T04:25:51.478Z,5.51
2023-01-03T04:28:18.178Z,5.47
2023-01-03T04:30:45.313Z,5.42
2023-01-03T04:33:11.873Z,5.47
2023-01-03T04:35:38.506Z,5.52
2023-01-03T04:38:05.225Z,5.57
2023-01-03T04:40:34.596Z,5.47
2023-01-03T04:43:19.858Z,5.54
2023-01-03T04:45:48.900Z,5.54
2023-01-03T04:48:15.765Z,5.57
2023-01-03T04:50:42.372Z,5.61
2023-01-03T04:53:08.991Z,5.54
2023-01-03T04:55:35.559Z,5.62
2023-01-03T04:58:02.792Z,5.68
2023-01-03T05:00:29.452Z,5.70
2023-01-03T05:02:56.122Z,5.72
2023-01-03T05:05:22.797Z,5.76
2023-01-03T05:07:49.476Z,5.80
2023-01-03T05:10:16.089Z,5.81
2023-01-03T05:12:42.840Z,5.82
2023-01-03T05:15:09.782Z,5.86
2023-01-03T05:17:36.323Z,5.91
2023-01-03T05:20:21.608Z,5.91
2023-01-03T05:23:06.532Z,5.93
2023-01-03T05:25:51.566Z,5.91
2023-01-03T05:28:20.680Z,5.90
2023-01-03T05:30:47.174Z,5.91
2023-01-03T05:33:13.804Z,5.90
2023-01-03T05:35:40.399Z,5.90
2023-01-03T05:38:07.039Z,5.90
2023-01-03T05:40:37.754Z,5.90
2023-01-03T05:43:07.748Z,5.90
2023-01-03T05:45:40.853Z,5.89
2023-01-03T05:48:08.786Z,5.87
2023-01-03T05:50:35.543Z,5.89
2023-01-03T05:53:02.287Z,5.88
2023-01-03T05:55:28.835Z,5.88
2023-01-03T05:57:55.353Z,5.86
2023-01-03T06:00:22.359Z,5.88
2023-01-03T06:02:49.045Z,5.88
2023-01-03T06:05:15.845Z,5.84
2023-01-03T06:07:43.373Z,5.88
2023-01-03T06:10:10.231Z,5.91
2023-01-03T06:12:36.915Z,5.92
2023-01-03T06:15:04.751Z,5.87
2023-01-03T06:17:49.931Z,5.86
2023-01-03T06:20:16.664Z,5.90
2023-01-03T06:22:43.419Z,5.86
2023-01-03T06:25:10.460Z,5.81
2023-01-03T06:27:37.048Z,5.83
2023-01-03T06:30:04.061Z,5.84
2023-01-03T06:32:30.844Z,5.87
2023-01-03T06:34:57.444Z,5.86
2023-01-03T06:37:23.982Z,5.88
2023-01-03T06:39:50.539Z,5.88
2023-01-03T06:42:35.862Z,5.85
2023-01-03T06:45:20.965Z,5.86
2023-01-03T06:48:06.045Z,5.85
2023-01-03T06:50:51.286Z,5.80
2023-01-03T06:53:21.559Z,5.80
2023-01-03T06:55:56.150Z,5.75
2023-01-03T06:58:23.691Z,5.71
2023-01-03T07:00:50.320Z,5.72
2023-01-03T07:03:16.888Z,5.67
2023-01-03T07:05:43.741Z,5.72
2023-01-03T07:08:10.441Z,5.68
2023-01-03T07:10:36.992Z,5.71
2023-01-03T07:13:22.255Z,5.67
2023-01-03T07:15:50.017Z,5.59
2023-01-03T07:18:16.611Z,5.58
2023-01-03T07:20:44.219Z,5.65
2023-01-03T07:23:12.874Z,5.65
2023-01-03T07:25:41.834Z,5.63
2023-01-03T07:28:13.323Z,5.67
2023-01-03T07:30:41.835Z,5.62
2023-01-03T07:33:10.117Z,5.58
2023-01-03T07:35:37.953Z,5.54
2023-01-03T07:38:05.452Z,5.54
2023-01-03T07:40:32.329Z,5.41
2023-01-03T07:43:17.603Z,5.49
2023-01-03T07:45:45.305Z,5.48
2023-01-03T07:48:13.172Z,5.47
2023-01-03T07:50:40.048Z,5.46
2023-01-03T07:53:08.150Z,5.55
2023-01-03T07:55:36.661Z,5.57
2023-01-03T07:58:03.830Z,5.59
2023-01-03T08:00:30.638Z,5.58
2023-01-03T08:02:57.292Z,5.58
2023-01-03T08:05:25.039Z,5.59
2023-01-03T08:07:52.688Z,5.57
2023-01-03T08:10:39.508Z,5.58
2023-01-03T08:13:18.794Z,5.63
2023-01-03T08:15:51.128Z,5.56
2023-01-03T08:18:21.435Z,5.51
2023-01-03T08:20:48.484Z,5.53
2023-01-03T08:23:15.629Z,5.56
2023-01-03T08:25:44.424Z,5.59
2023-01-03T08:28:11.518Z,5.64
2023-01-03T08:30:43.051Z,5.63
2023-01-03T08:33:13.559Z,5.62
2023-01-03T08:35:45.216Z,5.68
2023-01-03T08:38:16.554Z,5.68
2023-01-03T08:40:45.445Z,5.68
2023-01-03T08:43:13.793Z,5.69
2023-01-03T08:45:40.486Z,5.72
2023-01-03T08:48:09.993Z,5.72
2023-01-03T08:50:36.679Z,5.75
2023-01-03T08:53:05.152Z,5.78
2023-01-03T08:55:32.405Z,5.81
2023-01-03T08:57:59.900Z,5.79
2023-01-03T09:00:28.263Z,5.80
2023-01-03T09:02:57.832Z,5.81
2023-01-03T09:05:24.526Z,5.86
2023-01-03T09:07:51.116Z,5.83
2023-01-03T09:10:17.710Z,5.84
2023-01-03T09:12:44.234Z,5.73
2023-01-03T09:15:11.228Z,5.78
2023-01-03T09:17:38.020Z,5.67
2023-01-03T09:20:04.894Z,5.76
2023-01-03T09:22:31.462Z,5.76
2023-01-03T09:24:58.031Z,5.81
2023-01-03T09:27:24.631Z,5.84
2023-01-03T09:29:53.190Z,5.80
2023-01-03T09:32:20.003Z,5.81
2023-01-03T09:34:46.711Z,5.84
2023-01-03T09:37:13.508Z,5.85
2023-01-03T09:39:43.059Z,5.87
2023-01-03T09:42:40.586Z,5.84
2023-01-03T09:45:09.169Z,5.88
2023-01-03T09:47:38.680Z,5.90
2023-01-03T09:50:29.558Z,5.86
2023-01-03T09:53:16.879Z,5.77
2023-01-03T09:56:18.259Z,5.81
2023-01-03T09:59:11.048Z,5.74
2023-01-03T10:02:23.057Z,5.72
2023-01-03T10:05:08.686Z,5.67
2023-01-03T10:07:44.223Z,5.65
2023-01-03T10:10:38.515Z,5.75
2023-01-03T10:13:09.088Z,5.77
2023-01-03T10:16:15.685Z,5.86
2023-01-03T10:19:09.537Z,6.00
2023-01-03T10:21:41.897Z,6.03
2023-01-03T10:24:17.540Z,6.03
2023-01-03T10:26:44.223Z,6.06
2023-01-03T10:29:16.329Z,6.04
2023-01-03T10:32:12.322Z,6.03
2023-01-03T10:34:38.969Z,6.03
2023-01-03T10:37:31.846Z,6.03
2023-01-03T10:40:03.262Z,5.98
2023-01-03T10:42:33.009Z,6.08
2023-01-03T10:45:10.353Z,5.97
2023-01-03T10:47:37.576Z,6.04
2023-01-03T10:50:06.369Z,6.05
2023-01-03T10:52:40.158Z,5.98
2023-01-03T10:55:15.472Z,5.92
2023-01-03T10:57:56.755Z,5.90
2023-01-03T11:00:25.142Z,5.81
2023-01-03T11:02:52.638Z,5.86
2023-01-03T11:05:22.713Z,5.81
2023-01-03T11:07:58.599Z,5.70
2023-01-03T11:10:48.551Z,5.73
2023-01-03T11:13:24.149Z,5.70
2023-01-03T11:15:56.165Z,5.62
2023-01-03T11:18:23.741Z,5.59
2023-01-03T11:21:13.485Z,5.67
2023-01-03T11:23:55.246Z,5.52
2023-01-03T11:26:37.052Z,5.62
2023-01-03T11:29:27.351Z,5.69
2023-01-03T11:32:03.096Z,5.68
2023-01-03T11:35:22.219Z,5.67
2023-01-03T11:38:07.180Z,5.81
2023-01-03T11:40:49.556Z,5.74
2023-01-03T11:43:39.805Z,5.70
2023-01-03T11:46:24.646Z,5.73
2023-01-03T11:49:13.036Z,5.83
2023-01-03T11:51:52.631Z,5.90
2023-01-03T11:54:42.692Z,5.87
2023-01-03T11:57:44.983Z,5.98
2023-01-03T12:00:22.792Z,6.03
2023-01-03T12:03:09.422Z,6.08
2023-01-03T12:05:49.224Z,6.05
2023-01-03T12:08:42.537Z,6.16
2023-01-03T12:11:44.578Z,5.92
2023-01-03T12:14:14.250Z,6.07
2023-01-03T12:16:47.792Z,6.20
2023-01-03T12:19:33.677Z,6.15
2023-01-03T12:22:10.637Z,6.18
2023-01-03T12:24:50.142Z,6.26
2023-01-03T12:27:29.244Z,6.33
2023-01-03T12:29:59.352Z,6.30
2023-01-03T12:32:37.564Z,6.38
2023-01-03T12:35:42.715Z,6.45
2023-01-03T12:38:11.283Z,6.48
2023-01-03T12:40:52.640Z,6.53
2023-01-03T12:43:35.631Z,6.47
2023-01-03T12:46:18.679Z,6.60
2023-01-03T12:49:04.136Z,6.59
2023-01-03T12:51:31.179Z,6.62
2023-01-03T12:54:19.526Z,6.58
2023-01-03T12:57:10.879Z,6.51
2023-01-03T12:59:56.242Z,6.53
2023-01-03T13:02:57.068Z,6.44
2023-01-03T13:05:53.167Z,6.50
2023-01-03T13:08:34.797Z,6.50
2023-01-03T13:11:07.011Z,6.52
2023-01-03T13:13:35.128Z,6.43
2023-01-03T13:16:36.842Z,6.34
2023-01-03T13:19:21.845Z,6.24
2023-01-03T13:21:55.018Z,6.32
2023-01-03T13:24:41.147Z,6.34
2023-01-03T13:27:23.186Z,6.30
2023-01-03T13:29:49.683Z,6.32
2023-01-03T13:32:22.317Z,6.35
2023-01-03T13:34:58.050Z,6.55
2023-01-03T13:37:25.742Z,6.60
2023-01-03T13:39:52.268Z,6.57
2023-01-03T13:42:39.382Z,6.45
2023-01-03T13:45:23.821Z,6.45
2023-01-03T13:47:53.067Z,6.42
2023-01-03T13:50:33.795Z,6.46
2023-01-03T13:53:09.610Z,6.43
2023-01-03T13:55:56.988Z,6.42
2023-01-03T13:58:27.333Z,6.25
2023-01-03T14:01:05.052Z,6.33
2023-01-03T14:03:54.009Z,6.39
2023-01-03T14:06:26.624Z,6.43
2023-01-03T14:09:11.680Z,6.44
2023-01-03T14:12:06.822Z,6.48
2023-01-03T14:14:40.941Z,6.45
2023-01-03T14:17:18.273Z,6.36
2023-01-03T14:19:54.981Z,6.47
2023-01-03T14:22:36.962Z,6.46
2023-01-03T14:25:04.060Z,6.42
2023-01-03T14:27:40.456Z,6.46
2023-01-03T14:30:21.490Z,6.43
2023-01-03T14:32:48.100Z,6.42
2023-01-03T14:35:33.074Z,6.47
2023-01-03T14:38:04.679Z,6.41
2023-01-03T14:40:33.245Z,6.28
2023-01-03T14:43:04.114Z,6.44
2023-01-03T14:45:30.723Z,6.45
2023-01-03T14:47:57.439Z,6.45
2023-01-03T14:50:31.008Z,6.39
2023-01-03T14:53:00.697Z,6.36
2023-01-03T14:55:30.352Z,6.25
2023-01-03T14:57:58.092Z,6.24
2023-01-03T15:00:33.222Z,6.25
2023-01-03T15:03:01.940Z,6.26
2023-01-03T15:05:31.949Z,6.29
2023-01-03T15:08:24.753Z,6.27
2023-01-03T15:11:00.815Z,6.26
2023-01-03T15:13:35.176Z,6.20
2023-01-03T15:16:06.226Z,6.18
2023-01-03T15:18:34.876Z,6.15
2023-01-03T15:21:03.202Z,6.16
2023-01-03T15:23:48.657Z,6.12
2023-01-03T15:26:41.194Z,6.08
2023-01-03T15:29:17.874Z,6.08
2023-01-03T15:31:53.699Z,6.06
2023-01-03T15:34:29.415Z,6.08
2023-01-03T15:37:02.590Z,6.05
2023-01-03T15:39:42.167Z,5.97
2023-01-03T15:42:50.276Z,5.96
2023-01-03T15:45:25.056Z,5.94
2023-01-03T15:47:56.226Z,5.92
2023-01-03T15:50:25.269Z,5.90
2023-01-03T15:52:51.788Z,5.87
2023-01-03T15:55:18.616Z,5.88
2023-01-03T15:57:51.710Z,5.86
2023-01-03T16:00:21.298Z,5.90
2023-01-03T16:02:48.923Z,5.83
2023-01-03T16:05:22.171Z,5.84
2023-01-03T16:07:51.587Z,5.80
2023-01-03T16:10:18.185Z,5.79
2023-01-03T16:12:45.066Z,5.77
2023-01-03T16:15:22.395Z,5.80
2023-01-03T16:17:50.636Z,5.79
2023-01-03T16:20:18.976Z,5.78
2023-01-03T16:22:59.600Z,5.79
2023-01-03T16:25:28.515Z,5.79
2023-01-03T16:27:55.346Z,5.80
2023-01-03T16:30:24.479Z,5.81
2023-01-03T16:32:51.656Z,5.83
2023-01-03T16:35:20.003Z,5.86
2023-01-03T16:37:47.423Z,5.86
2023-01-03T16:40:19.578Z,5.86
2023-01-03T16:42:46.775Z,5.80
2023-01-03T16:45:13.689Z,5.78
2023-01-03T16:47:40.422Z,5.79
2023-01-03T16:50:14.228Z,5.82
2023-01-03T16:52:44.380Z,5.83
2023-01-03T16:55:17.965Z,5.86
2023-01-03T16:57:48.709Z,5.82
2023-01-03T17:00:21.686Z,5.86
2023-01-03T17:02:48.596Z,5.84
2023-01-03T17:05:15.827Z,5.77
2023-01-03T17:07:46.029Z,5.75
2023-01-03T17:10:27.421Z,5.77
2023-01-03T17:12:54.702Z,5.78
2023-01-03T17:15:21.747Z,5.75
2023-01-03T17:17:48.360Z,5.70
2023-01-03T17:20:19.381Z,5.68
2023-01-03T17:22:56.635Z,5.70
2023-01-03T17:25:24.022Z,5.72
2023-01-03T17:27:54.800Z,5.74
2023-01-03T17:30:26.205Z,5.73
2023-01-03T17:32:53.298Z,5.70
2023-01-03T17:35:20.065Z,5.64
2023-01-03T17:40:34.756Z,5.67
2023-01-03T17:43:02.366Z,5.69
2023-01-03T17:45:47.675Z,5.71
2023-01-03T17:48:32.912Z,5.73
2023-01-03T17:51:01.690Z,5.74
2023-01-03T17:53:29.439Z,5.76
2023-01-03T17:55:56.166Z,5.73
2023-01-03T17:58:35.106Z,5.74
2023-01-03T18:01:02.611Z,5.66
2023-01-03T18:03:30.914Z,5.66
2023-01-03T18:06:00.398Z,5.72
2023-01-03T18:08:27.033Z,5.73
2023-01-03T18:10:53.744Z,5.70
2023-01-03T18:13:25.454Z,5.74
2023-01-03T18:15:53.093Z,5.69
2023-01-03T18:18:22.175Z,5.69
2023-01-03T18:20:49.231Z,5.68
2023-01-03T18:23:21.622Z,5.66
2023-01-03T18:25:48.422Z,5.60
2023-01-03T18:28:19.817Z,5.59
2023-01-03T18:30:46.534Z,5.52
2023-01-03T18:33:13.153Z,5.47
2023-01-03T18:35:40.485Z,5.37
2023-01-03T18:38:07.329Z,5.32
2023-01-03T18:40:34.435Z,5.29
2023-01-03T18:43:13.745Z,5.26
2023-01-03T18:45:41.727Z,5.32
2023-01-03T18:48:14.659Z,5.35
2023-01-03T18:50:42.065Z,5.35
2023-01-03T18:53:16.473Z,5.32
2023-01-03T18:55:43.382Z,5.29
2023-01-03T18:58:34.278Z,5.34
2023-01-03T19:01:01.420Z,5.31
2023-01-03T19:03:30.566Z,5.20
2023-01-03T19:05:59.382Z,5.26
2023-01-03T19:08:29.416Z,5.25
2023-01-03T19:11:01.763Z,5.26
2023-01-03T19:13:49.792Z,5.26
2023-01-03T19:16:25.274Z,5.22
2023-01-03T19:18:52.778Z,5.23
2023-01-03T19:21:21.406Z,5.25
2023-01-03T19:23:59.643Z,5.19
2023-01-03T19:26:33.930Z,5.17
2023-01-03T19:29:04.396Z,5.18
2023-01-03T19:31:47.364Z,5.22
2023-01-03T19:34:17.994Z,5.10
2023-01-03T19:36:45.515Z,5.06
2023-01-03T19:39:12.636Z,5.03
2023-01-03T19:42:16.206Z,5.02
2023-01-03T19:44:43.477Z,5.07
2023-01-03T19:47:16.068Z,5.05
2023-01-03T19:49:44.358Z,5.00
2023-01-03T19:52:10.977Z,4.98
2023-01-03T19:54:37.546Z,4.96
2023-01-03T19:57:04.666Z,4.88
2023-01-03T19:59:38.244Z,4.88
2023-01-03T20:02:25.982Z,4.84
2023-01-03T20:04:52.997Z,4.80
2023-01-03T20:07:19.747Z,4.79
2023-01-03T20:09:46.360Z,4.79
2023-01-03T20:12:15.438Z,4.81
2023-01-03T20:14:47.108Z,4.78
2023-01-03T20:17:24.441Z,4.72
2023-01-03T20:19:51.941Z,4.69
2023-01-03T20:22:53.429Z,4.69
2023-01-03T20:25:21.437Z,4.65
2023-01-03T20:27:48.120Z,4.65
2023-01-03T20:30:16.743Z,4.60
2023-01-03T20:32:43.703Z,4.58
2023-01-03T20:36:06.254Z,4.53
2023-01-03T20:38:02.613Z,4.52
2023-01-03T20:40:29.175Z,4.53
2023-01-03T20:42:57.495Z,4.55
2023-01-03T20:45:24.250Z,4.53
2023-01-03T20:47:53.017Z,4.53
2023-01-03T20:50:25.469Z,4.48
2023-01-03T20:52:53.247Z,4.47
2023-01-03T20:55:21.869Z,4.45
2023-01-03T20:57:49.381Z,4.44
2023-01-03T21:00:28.518Z,4.38
2023-01-03T21:02:55.305Z,4.30
2023-01-03T21:05:22.953Z,4.29
2023-01-03T21:08:08.607Z,4.27
2023-01-03T21:10:41.794Z,4.24
2023-01-03T21:13:10.526Z,4.23
2023-01-03T21:15:38.612Z,4.21
2023-01-03T21:18:06.426Z,4.18
2023-01-03T21:20:33.549Z,4.15
2023-01-03T21:23:00.405Z,4.15
2023-01-03T21:25:33.088Z,4.17
2023-01-03T21:28:00.713Z,4.19
2023-01-03T21:30:29.983Z,4.17
2023-01-03T21:32:56.941Z,4.19
2023-01-03T21:35:24.488Z,4.22
2023-01-03T21:37:52.805Z,4.20
2023-01-03T21:40:22.857Z,4.21
2023-01-03T21:43:04.129Z,4.20
2023-01-03T21:45:35.086Z,4.21
2023-01-03T21:48:04.301Z,4.22
2023-01-03T21:50:32.513Z,4.27
2023-01-03T21:52:59.418Z,4.31
2023-01-03T21:55:26.313Z,4.34
2023-01-03T21:57:52.886Z,4.38
2023-01-03T22:00:19.979Z,4.38
2023-01-03T22:03:05.800Z,4.42
2023-01-03T22:05:32.484Z,4.43
2023-01-03T22:08:01.303Z,4.45
2023-01-03T22:10:30.246Z,4.46
2023-01-03T22:13:02.731Z,4.47
2023-01-03T22:15:29.281Z,4.46
2023-01-03T22:17:55.971Z,4.43
2023-01-03T22:20:25.499Z,4.46
2023-01-03T22:22:52.236Z,4.43
2023-01-03T22:25:21.639Z,4.40
2023-01-03T22:27:48.483Z,4.39
2023-01-03T22:30:18.358Z,4.38
2023-01-03T22:32:45.657Z,4.39
2023-01-03T22:35:14.108Z,4.44
2023-01-03T22:37:40.887Z,4.44
2023-01-03T22:40:10.875Z,4.44
2023-01-03T22:42:37.510Z,4.43
2023-01-03T22:45:05.104Z,4.43
2023-01-03T22:47:31.701Z,4.43
2023-01-03T22:49:58.351Z,4.43
2023-01-03T22:52:25.021Z,4.41
2023-01-03T22:54:51.809Z,4.45
2023-01-03T22:57:18.486Z,4.47
2023-01-03T22:59:45.641Z,4.46
2023-01-03T23:02:12.494Z,4.41
2023-01-03T23:04:39.337Z,4.39
2023-01-03T23:07:06.256Z,4.32
2023-01-03T23:09:33.171Z,4.30
2023-01-03T23:12:18.193Z,4.21
2023-01-03T23:14:45.109Z,4.26
2023-01-03T23:17:30.432Z,4.28
2023-01-03T23:19:57.056Z,4.35
2023-01-03T23:22:23.631Z,4.33
2023-01-03T23:24:50.172Z,4.34
2023-01-03T23:27:16.815Z,4.34
2023-01-03T23:29:43.334Z,4.34
2023-01-03T23:32:09.917Z,4.35
2023-01-03T23:34:36.558Z,4.39
2023-01-03T23:37:03.121Z,4.41
2023-01-03T23:39:29.676Z,4.42
2023-01-03T23:41:56.457Z,4.40
2023-01-03T23:44:23.035Z,4.37
2023-01-03T23:46:49.619Z,4.37
2023-01-03T23:49:16.364Z,4.34
2023-01-03T23:51:43.479Z,4.30
2023-01-03T23:54:10.322Z,4.35
2023-01-03T23:56:37.184Z,4.24
2023-01-03T23:59:04.122Z,4.26
